createdAt,value
2023-01-17T00:00:36.009Z,959.59
2023-01-17T00:01:36.002Z,956.15
2023-01-17T00:02:36.068Z,952.72
2023-01-17T00:03:35.992Z,948.64
2023-01-17T00:04:35.961Z,956.83
2023-01-17T00:05:35.959Z,952.04
2023-01-17T00:06:35.936Z,950.68
2023-01-17T00:07:35.925Z,954.77
2023-01-17T00:08:35.920Z,947.29
2023-01-17T00:09:35.922Z,938.60
2023-01-17T00:10:35.887Z,939.27
2023-01-17T00:11:35.879Z,941.93
2023-01-17T00:12:35.891Z,939.93
2023-01-17T00:13:35.843Z,935.96
2023-01-17T00:14:35.839Z,943.93
2023-01-17T00:15:35.818Z,948.64
2023-01-17T00:16:35.821Z,949.32
2023-01-17T00:17:35.790Z,943.93
2023-01-17T00:18:35.771Z,938.60
2023-01-17T00:19:35.788Z,937.94
2023-01-17T00:20:35.768Z,940.59
2023-01-17T00:21:35.736Z,937.94
2023-01-17T00:22:35.774Z,941.93
2023-01-17T00:23:35.708Z,942.59
2023-01-17T00:24:35.721Z,943.26
2023-01-17T00:25:35.720Z,943.93
2023-01-17T00:26:35.676Z,935.30
2023-01-17T00:27:35.664Z,935.96
2023-01-17T00:28:35.667Z,933.99
2023-01-17T00:29:35.637Z,923.61
2023-01-17T00:30:35.621Z,935.96
2023-01-17T00:31:35.651Z,933.33
2023-01-17T00:32:35.599Z,927.47
2023-01-17T00:33:35.596Z,931.37
2023-01-17T00:34:35.583Z,935.96
2023-01-17T00:35:35.561Z,940.59
2023-01-17T00:36:35.599Z,932.03
2023-01-17T00:37:35.532Z,942.59
2023-01-17T00:38:35.574Z,947.29
2023-01-17T00:39:35.516Z,941.26
2023-01-17T00:40:35.517Z,932.03
2023-01-17T00:41:35.493Z,930.72
2023-01-17T00:42:35.464Z,937.28
2023-01-17T00:43:35.456Z,937.94
2023-01-17T00:44:35.437Z,943.26
2023-01-17T00:45:35.426Z,948.64
2023-01-17T00:46:35.487Z,941.93
2023-01-17T00:47:35.407Z,935.30
2023-01-17T00:48:35.410Z,933.33
2023-01-17T00:49:35.374Z,933.99
2023-01-17T00:50:35.371Z,926.18
2023-01-17T00:51:35.368Z,927.47
2023-01-17T00:52:35.342Z,916.61
2023-01-17T00:53:35.325Z,914.72
2023-01-17T00:54:36.349Z,921.05
2023-01-17T00:55:35.304Z,923.61
2023-01-17T00:56:35.296Z,912.83
2023-01-17T00:57:35.304Z,918.51
2023-01-17T00:58:35.258Z,907.85
2023-01-17T00:59:35.267Z,899.86
2023-01-17T01:00:35.251Z,894.42
2023-01-17T01:01:35.502Z,887.85
2023-01-17T01:02:35.331Z,884.90
2023-01-17T01:03:35.195Z,880.21
2023-01-17T01:04:35.185Z,864.20
2023-01-17T01:05:35.202Z,842.84
2023-01-17T01:06:35.164Z,839.12
2023-01-17T01:07:35.149Z,835.95
2023-01-17T01:08:35.127Z,845.52
2023-01-17T01:09:35.127Z,858.62
2023-01-17T01:10:35.119Z,850.38
2023-01-17T01:11:35.093Z,855.85
2023-01-17T01:12:35.130Z,849.84
2023-01-17T01:13:35.084Z,846.06
2023-01-17T01:14:35.049Z,840.18
2023-01-17T01:15:35.061Z,841.77
2023-01-17T01:16:35.083Z,854.21
2023-01-17T01:17:35.048Z,854.21
2023-01-17T01:18:35.006Z,854.21
2023-01-17T01:19:34.996Z,855.85
2023-01-17T01:20:35.028Z,848.21
2023-01-17T01:21:34.973Z,852.56
2023-01-17T01:22:34.974Z,852.56
2023-01-17T01:23:34.966Z,850.93
2023-01-17T01:24:34.920Z,851.47
2023-01-17T01:25:34.914Z,854.76
2023-01-17T01:26:34.894Z,861.96
2023-01-17T01:27:34.901Z,870.99
2023-01-17T01:28:34.926Z,868.71
2023-01-17T01:29:34.866Z,881.96
2023-01-17T01:30:34.855Z,895.62
2023-01-17T01:31:34.869Z,912.83
2023-01-17T01:32:34.856Z,921.05
2023-01-17T01:33:34.864Z,936.62
2023-01-17T01:34:34.792Z,946.62
2023-01-17T01:35:34.790Z,944.60
2023-01-17T01:36:34.784Z,939.27
2023-01-17T01:37:34.775Z,950.68
2023-01-17T01:38:34.744Z,959.59
2023-01-17T01:39:34.740Z,963.77
2023-01-17T01:40:34.724Z,959.59
2023-01-17T01:41:34.704Z,960.98
2023-01-17T01:42:34.691Z,957.52
2023-01-17T01:43:34.732Z,954.77
2023-01-17T01:44:34.665Z,971.51
2023-01-17T01:45:34.670Z,967.27
2023-01-17T01:46:34.727Z,978.66
2023-01-17T01:47:34.641Z,973.65
2023-01-17T01:48:34.627Z,968.68
2023-01-17T01:49:34.602Z,977.94
2023-01-17T01:50:34.596Z,978.66
2023-01-17T01:51:34.595Z,974.36
2023-01-17T01:52:34.577Z,981.55
2023-01-17T01:53:34.566Z,988.85
2023-01-17T01:54:34.536Z,990.32
2023-01-17T01:55:34.533Z,987.38
2023-01-17T01:56:34.522Z,982.27
2023-01-17T01:57:34.512Z,995.51
2023-01-17T01:58:34.503Z,990.32
2023-01-17T01:59:34.479Z,984.46
2023-01-17T02:00:34.718Z,984.46
2023-01-17T02:01:34.608Z,976.51
2023-01-17T02:02:34.436Z,983.00
2023-01-17T02:03:34.507Z,981.55
2023-01-17T02:04:34.415Z,979.38
2023-01-17T02:05:34.400Z,975.07
2023-01-17T02:06:34.391Z,981.55
2023-01-17T02:07:34.432Z,966.57
2023-01-17T02:08:34.375Z,956.83
2023-01-17T02:09:34.349Z,954.77
2023-01-17T02:10:34.335Z,954.77
2023-01-17T02:11:34.320Z,956.15
2023-01-17T02:12:34.338Z,943.93
2023-01-17T02:13:34.325Z,951.36
2023-01-17T02:14:34.277Z,957.52
2023-01-17T02:15:34.270Z,957.52
2023-01-17T02:16:34.262Z,954.09
2023-01-17T02:17:34.255Z,959.59
2023-01-17T02:18:34.245Z,936.62
2023-01-17T02:19:34.236Z,921.69
2023-01-17T02:20:34.214Z,919.14
2023-01-17T02:21:34.211Z,919.14
2023-01-17T02:22:34.197Z,924.25
2023-01-17T02:23:34.185Z,923.61
2023-01-17T02:24:34.185Z,926.83
2023-01-17T02:25:34.147Z,939.93
2023-01-17T02:26:34.135Z,928.12
2023-01-17T02:27:34.139Z,904.76
2023-01-17T02:28:34.103Z,921.05
2023-01-17T02:29:34.139Z,921.05
2023-01-17T02:30:34.089Z,915.98
2023-01-17T02:31:34.105Z,902.92
2023-01-17T02:32:34.055Z,910.34
2023-01-17T02:33:34.034Z,915.98
2023-01-17T02:34:34.119Z,920.41
2023-01-17T02:35:34.026Z,937.28
2023-01-17T02:36:34.003Z,935.96
2023-01-17T02:37:33.981Z,931.37
2023-01-17T02:38:40.517Z,924.90
2023-01-17T02:39:34.688Z,924.25
2023-01-17T02:40:34.640Z,896.83
2023-01-17T02:41:33.930Z,884.90
2023-01-17T02:42:33.920Z,892.62
2023-01-17T02:43:33.922Z,886.08
2023-01-17T02:44:33.973Z,877.89
2023-01-17T02:45:33.957Z,887.26
2023-01-17T02:46:33.866Z,886.08
2023-01-17T02:47:33.954Z,888.44
2023-01-17T02:48:33.837Z,879.05
2023-01-17T02:49:33.825Z,881.38
2023-01-17T02:50:33.817Z,882.55
2023-01-17T02:51:33.800Z,898.65
2023-01-17T02:52:33.787Z,900.47
2023-01-17T02:53:33.777Z,905.38
2023-01-17T02:54:33.768Z,901.69
2023-01-17T02:55:33.821Z,896.23
2023-01-17T02:56:33.730Z,899.26
2023-01-17T02:57:33.742Z,904.76
2023-01-17T02:58:33.715Z,903.53
2023-01-17T02:59:33.701Z,912.83
2023-01-17T03:00:33.723Z,914.09
2023-01-17T03:01:33.777Z,915.98
2023-01-17T03:02:33.765Z,914.72
2023-01-17T03:03:33.658Z,921.05
2023-01-17T03:04:33.663Z,921.05
2023-01-17T03:05:33.645Z,917.87
2023-01-17T03:06:33.598Z,924.90
2023-01-17T03:07:33.616Z,925.54
2023-01-17T03:08:33.593Z,921.05
2023-01-17T03:09:33.576Z,915.35
2023-01-17T03:10:33.599Z,919.14
2023-01-17T03:11:33.548Z,922.97
2023-01-17T03:12:33.560Z,934.65
2023-01-17T03:13:33.527Z,936.62
2023-01-17T03:14:33.519Z,926.83
2023-01-17T03:15:33.497Z,924.90
2023-01-17T03:16:33.527Z,918.51
2023-01-17T03:17:33.488Z,926.83
2023-01-17T03:18:33.450Z,935.30
2023-01-17T03:19:33.437Z,937.94
2023-01-17T03:20:33.443Z,936.62
2023-01-17T03:21:33.407Z,932.68
2023-01-17T03:22:33.395Z,937.94
2023-01-17T03:23:33.407Z,926.18
2023-01-17T03:24:33.372Z,914.09
2023-01-17T03:25:33.402Z,921.69
2023-01-17T03:26:33.346Z,909.71
2023-01-17T03:27:33.335Z,908.47
2023-01-17T03:28:33.316Z,899.26
2023-01-17T03:29:33.302Z,903.53
2023-01-17T03:30:33.375Z,904.76
2023-01-17T03:31:33.306Z,901.08
2023-01-17T03:32:33.276Z,910.34
2023-01-17T03:33:33.267Z,904.15
2023-01-17T03:34:33.238Z,899.86
2023-01-17T03:35:33.219Z,893.22
2023-01-17T03:36:33.217Z,876.15
2023-01-17T03:37:33.206Z,889.63
2023-01-17T03:38:33.186Z,889.63
2023-01-17T03:39:33.180Z,892.62
2023-01-17T03:40:33.158Z,902.92
2023-01-17T03:41:33.181Z,914.09
2023-01-17T03:42:33.158Z,911.58
2023-01-17T03:43:33.134Z,900.47
2023-01-17T03:44:33.143Z,899.86
2023-01-17T03:45:33.130Z,895.02
2023-01-17T03:46:33.095Z,888.44
2023-01-17T03:47:33.070Z,883.72
2023-01-17T03:48:33.075Z,889.04
2023-01-17T03:49:33.068Z,869.85
2023-01-17T03:50:33.045Z,860.84
2023-01-17T03:51:33.021Z,873.28
2023-01-17T03:52:33.048Z,887.26
2023-01-17T03:53:33.008Z,892.02
2023-01-17T03:54:32.981Z,902.31
2023-01-17T03:55:32.982Z,899.26
2023-01-17T03:56:32.984Z,880.21
2023-01-17T03:57:32.961Z,866.45
2023-01-17T03:58:32.932Z,872.13
2023-01-17T03:59:32.922Z,883.72
2023-01-17T04:00:32.898Z,884.31
2023-01-17T04:01:33.155Z,865.32
2023-01-17T04:02:32.895Z,847.13
2023-01-17T04:03:32.866Z,839.12
2023-01-17T04:04:32.852Z,842.30
2023-01-17T04:05:32.834Z,848.76
2023-01-17T04:06:32.839Z,846.06
2023-01-17T04:07:32.814Z,847.67
2023-01-17T04:08:32.810Z,837.00
2023-01-17T04:09:32.787Z,827.11
2023-01-17T04:10:32.771Z,837.53
2023-01-17T04:11:32.756Z,812.46
2023-01-17T04:12:32.798Z,775.06
2023-01-17T04:13:32.741Z,770.57
2023-01-17T04:14:32.721Z,793.08
2023-01-17T04:15:32.708Z,808.02
2023-01-17T04:16:32.749Z,800.24
2023-01-17T04:17:32.682Z,790.26
2023-01-17T04:18:32.676Z,782.35
2023-01-17T04:19:32.663Z,746.44
2023-01-17T04:20:32.647Z,747.61
2023-01-17T04:21:32.642Z,743.94
2023-01-17T04:22:32.636Z,746.35
2023-01-17T04:23:32.609Z,775.96
2023-01-17T04:24:32.597Z,785.59
2023-01-17T04:25:32.577Z,760.87
2023-01-17T04:26:32.577Z,765.69
2023-01-17T04:27:32.559Z,801.20
2023-01-17T04:28:32.559Z,795.93
2023-01-17T04:29:32.540Z,763.05
2023-01-17T04:30:32.589Z,730.04
2023-01-17T04:31:32.528Z,715.11
2023-01-17T04:32:32.497Z,725.26
2023-01-17T04:33:32.500Z,753.54
2023-01-17T04:34:32.471Z,794.03
2023-01-17T04:35:32.449Z,805.08
2023-01-17T04:36:32.476Z,807.04
2023-01-17T04:37:32.436Z,822.51
2023-01-17T04:38:32.425Z,796.88
2023-01-17T04:39:32.399Z,818.97
2023-01-17T04:40:32.391Z,823.02
2023-01-17T04:41:32.382Z,787.45
2023-01-17T04:42:32.359Z,761.74
2023-01-17T04:43:32.363Z,747.19
2023-01-17T04:44:32.337Z,765.25
2023-01-17T04:45:32.339Z,738.15
2023-01-17T04:46:32.327Z,746.77
2023-01-17T04:47:32.299Z,724.47
2023-01-17T04:48:32.304Z,677.20
2023-01-17T04:49:32.281Z,631.50
2023-01-17T04:50:32.268Z,666.33
2023-01-17T04:51:32.251Z,672.40
2023-01-17T04:52:32.231Z,687.01
2023-01-17T04:53:32.237Z,711.28
2023-01-17T04:54:32.234Z,650.67
2023-01-17T04:55:32.193Z,588.43
2023-01-17T04:56:32.185Z,565.39
2023-01-17T04:57:32.164Z,572.21
2023-01-17T04:58:32.160Z,575.68
2023-01-17T04:59:32.143Z,557.80
2023-01-17T05:00:32.128Z,519.82
2023-01-17T05:01:32.239Z,543.65
2023-01-17T05:02:32.167Z,550.40
2023-01-17T05:03:32.096Z,548.58
2023-01-17T05:04:32.087Z,496.51
2023-01-17T05:05:32.064Z,479.66
2023-01-17T05:06:32.059Z,485.62
2023-01-17T05:07:32.046Z,485.27
2023-01-17T05:08:32.026Z,516.99
2023-01-17T05:09:32.022Z,482.45
2023-01-17T05:10:32.003Z,433.36
2023-01-17T05:11:31.988Z,395.67
2023-01-17T05:12:31.982Z,337.80
2023-01-17T05:13:31.961Z,338.85
2023-01-17T05:14:31.970Z,372.86
2023-01-17T05:15:31.962Z,412.37
2023-01-17T05:16:31.923Z,382.24
2023-01-17T05:17:31.922Z,388.05
2023-01-17T05:18:31.913Z,394.73
2023-01-17T05:19:31.924Z,449.18
2023-01-17T05:20:31.874Z,480.01
2023-01-17T05:21:31.867Z,498.38
2023-01-17T05:22:31.843Z,483.50
2023-01-17T05:23:31.841Z,421.53
2023-01-17T05:24:31.844Z,367.41
2023-01-17T05:25:31.808Z,406.32
2023-01-17T05:26:31.794Z,403.36
2023-01-17T05:27:31.794Z,388.27
2023-01-17T05:28:31.793Z,406.07
2023-01-17T05:29:31.767Z,431.11
2023-01-17T05:30:31.788Z,465.22
2023-01-17T05:31:31.736Z,469.16
2023-01-17T05:32:31.715Z,449.48
2023-01-17T05:33:31.724Z,472.50
2023-01-17T05:34:31.703Z,475.89
2023-01-17T05:35:31.702Z,465.55
2023-01-17T05:36:31.680Z,415.99
2023-01-17T05:37:31.659Z,389.87
2023-01-17T05:38:31.645Z,355.81
2023-01-17T05:39:31.633Z,344.56
2023-01-17T05:40:31.634Z,383.34
2023-01-17T05:41:31.619Z,411.10
2023-01-17T05:42:31.599Z,451.31
2023-01-17T05:43:31.612Z,483.86
2023-01-17T05:44:31.566Z,447.97
2023-01-17T05:45:31.582Z,471.49
2023-01-17T05:46:31.596Z,507.51
2023-01-17T05:47:31.531Z,539.67
2023-01-17T05:48:31.538Z,506.35
2023-01-17T05:49:31.501Z,481.75
2023-01-17T05:50:31.512Z,483.15
2023-01-17T05:51:31.491Z,478.97
2023-01-17T05:52:31.488Z,496.14
2023-01-17T05:53:31.465Z,457.85
2023-01-17T05:54:31.437Z,439.08
2023-01-17T05:55:31.444Z,483.86
2023-01-17T05:56:31.414Z,489.20
2023-01-17T05:57:31.397Z,462.31
2023-01-17T05:58:31.394Z,495.03
2023-01-17T05:59:36.856Z,520.23
2023-01-17T06:00:31.394Z,537.49
2023-01-17T06:01:31.343Z,567.32
2023-01-17T06:02:31.384Z,590.52
2023-01-17T06:03:31.329Z,570.73
2023-01-17T06:04:31.376Z,527.67
2023-01-17T06:05:31.317Z,484.56
2023-01-17T06:06:31.297Z,494.30
2023-01-17T06:07:31.268Z,518.61
2023-01-17T06:08:31.269Z,521.46
2023-01-17T06:09:31.250Z,531.47
2023-01-17T06:10:31.247Z,497.26
2023-01-17T06:11:31.231Z,452.54
2023-01-17T06:12:31.202Z,427.50
2023-01-17T06:13:31.189Z,427.50
2023-01-17T06:14:31.195Z,415.73
2023-01-17T06:15:31.169Z,439.67
2023-01-17T06:16:31.189Z,471.16
2023-01-17T06:17:31.145Z,448.57
2023-01-17T06:18:31.152Z,465.22
2023-01-17T06:19:31.152Z,492.46
2023-01-17T06:20:31.112Z,513.79
2023-01-17T06:21:31.092Z,542.31
2023-01-17T06:22:31.088Z,512.21
2023-01-17T06:23:31.080Z,493.20
2023-01-17T06:24:31.080Z,503.28
2023-01-17T06:25:31.042Z,499.12
2023-01-17T06:26:31.052Z,499.12
2023-01-17T06:27:31.022Z,470.16
2023-01-17T06:28:31.022Z,475.20
2023-01-17T06:29:30.989Z,484.21
2023-01-17T06:30:30.981Z,510.24
2023-01-17T06:31:31.066Z,503.28
2023-01-17T06:32:31.012Z,490.65
2023-01-17T06:33:30.977Z,502.14
2023-01-17T06:34:30.951Z,516.99
2023-01-17T06:35:30.940Z,510.63
2023-01-17T06:36:30.912Z,463.60
2023-01-17T06:37:30.918Z,361.72
2023-01-17T06:38:30.877Z,284.82
2023-01-17T06:39:30.884Z,248.64
2023-01-17T06:40:30.855Z,237.79
2023-01-17T06:41:30.906Z,218.70
2023-01-17T06:42:30.895Z,207.85
2023-01-17T06:43:30.811Z,221.51
2023-01-17T06:44:30.819Z,209.58
2023-01-17T06:45:30.786Z,191.76
2023-01-17T06:46:30.823Z,186.82
2023-01-17T06:47:30.763Z,189.86
2023-01-17T06:48:30.747Z,187.57
2023-01-17T06:49:30.729Z,171.57
2023-01-17T06:50:30.720Z,177.05
2023-01-17T06:51:30.742Z,200.70
2023-01-17T06:52:30.732Z,184.52
2023-01-17T06:53:30.681Z,189.53
2023-01-17T06:54:30.704Z,206.41
2023-01-17T06:55:30.681Z,216.96
2023-01-17T06:56:30.642Z,237.79
2023-01-17T06:57:30.652Z,231.88
2023-01-17T06:58:30.615Z,197.31
2023-01-17T06:59:30.613Z,175.55
2023-01-17T07:00:30.779Z,154.36
2023-01-17T07:01:30.746Z,139.59
2023-01-17T07:02:30.580Z,133.43
2023-01-17T07:03:30.609Z,137.28
2023-01-17T07:04:30.541Z,145.71
2023-01-17T07:05:30.563Z,160.01
2023-01-17T07:06:30.521Z,177.24
2023-01-17T07:07:33.037Z,185.55
2023-01-17T07:08:30.521Z,194.96
2023-01-17T07:09:30.487Z,190.53
2023-01-17T07:10:30.464Z,175.55
2023-01-17T07:11:30.465Z,154.08
2023-01-17T07:12:30.459Z,137.62
2023-01-17T07:13:30.422Z,125.28
2023-01-17T07:14:30.478Z,117.16
2023-01-17T07:15:30.428Z,111.58
2023-01-17T07:16:30.454Z,112.41
2023-01-17T07:17:30.402Z,108.87
2023-01-17T07:18:30.365Z,105.02
2023-01-17T07:19:30.343Z,101.99
2023-01-17T07:20:30.346Z,101.25
2023-01-17T07:21:30.337Z,103.97
2023-01-17T07:22:30.319Z,102.06
2023-01-17T07:23:30.295Z,100.21
2023-01-17T07:24:30.288Z,98.14
2023-01-17T07:25:30.273Z,96.82
2023-01-17T07:26:30.273Z,96.38
2023-01-17T07:27:30.327Z,96.49
2023-01-17T07:28:30.244Z,98.02
2023-01-17T07:29:30.233Z,99.73
2023-01-17T07:30:30.227Z,102.37
2023-01-17T07:31:30.238Z,100.39
2023-01-17T07:32:30.191Z,100.27
2023-01-17T07:33:30.187Z,100.57
2023-01-17T07:34:30.159Z,99.91
2023-01-17T07:35:30.138Z,101.25
2023-01-17T07:36:30.152Z,109.95
2023-01-17T07:37:30.124Z,113.64
2023-01-17T07:38:30.120Z,117.99
2023-01-17T07:39:30.092Z,112.79
2023-01-17T07:40:30.746Z,117.66
2023-01-17T07:41:30.061Z,126.04
2023-01-17T07:42:30.090Z,135.49
2023-01-17T07:43:30.053Z,138.89
2023-01-17T07:44:30.037Z,148.30
2023-01-17T07:45:30.025Z,155.23
2023-01-17T07:46:30.096Z,164.12
2023-01-17T07:47:29.987Z,171.39
2023-01-17T07:48:29.982Z,178.19
2023-01-17T07:49:29.964Z,159.70
2023-01-17T07:50:29.957Z,153.51
2023-01-17T07:51:29.934Z,152.66
2023-01-17T07:52:29.948Z,152.94
2023-01-17T07:53:29.951Z,150.32
2023-01-17T07:54:29.898Z,153.93
2023-01-17T07:55:29.884Z,167.76
2023-01-17T07:56:29.881Z,180.90
2023-01-17T07:57:29.856Z,182.29
2023-01-17T07:58:29.864Z,177.62
2023-01-17T07:59:29.865Z,194.84
2023-01-17T08:00:29.822Z,195.19
2023-01-17T08:01:29.943Z,167.42
2023-01-17T08:02:29.798Z,147.78
2023-01-17T08:03:29.817Z,141.97
2023-01-17T08:04:29.776Z,145.96
2023-01-17T08:05:29.765Z,160.32
2023-01-17T08:06:29.759Z,168.44
2023-01-17T08:07:29.740Z,159.55
2023-01-17T08:08:29.716Z,155.37
2023-01-17T08:09:29.718Z,147.65
2023-01-17T08:10:29.737Z,155.96
2023-01-17T08:11:29.679Z,152.10
2023-01-17T08:12:29.769Z,141.73
2023-01-17T08:13:30.002Z,151.96
2023-01-17T08:14:29.655Z,167.42
2023-01-17T08:15:29.625Z,174.63
2023-01-17T08:16:29.799Z,189.97
2023-01-17T08:17:29.622Z,180.51
2023-01-17T08:18:29.591Z,161.25
2023-01-17T08:19:29.582Z,164.28
2023-01-17T08:20:29.572Z,161.88
2023-01-17T08:21:29.554Z,160.32
2023-01-17T08:22:29.536Z,171.92
2023-01-17T08:23:29.537Z,175.93
2023-01-17T08:24:29.520Z,178.96
2023-01-17T08:25:29.501Z,177.24
2023-01-17T08:26:29.485Z,184.61
2023-01-17T08:27:29.477Z,191.64
2023-01-17T08:28:29.471Z,208.78
2023-01-17T08:29:29.456Z,218.55
2023-01-17T08:30:29.447Z,214.68
2023-01-17T08:31:29.468Z,219.73
2023-01-17T08:32:29.420Z,206.54
2023-01-17T08:33:29.438Z,196.48
2023-01-17T08:34:29.389Z,188.55
2023-01-17T08:35:29.380Z,175.18
2023-01-17T08:36:29.359Z,188.55
2023-01-17T08:37:29.355Z,182.09
2023-01-17T08:38:29.329Z,167.09
2023-01-17T08:39:29.347Z,156.54
2023-01-17T08:40:29.308Z,170.86
2023-01-17T08:41:29.296Z,169.47
2023-01-17T08:42:29.292Z,173.00
2023-01-17T08:43:29.301Z,160.78
2023-01-17T08:44:29.265Z,151.27
2023-01-17T08:45:29.316Z,150.04
2023-01-17T08:46:30.912Z,159.70
2023-01-17T08:47:29.217Z,167.59
2023-01-17T08:48:29.211Z,181.69
2023-01-17T08:49:29.208Z,191.64
2023-01-17T08:50:29.186Z,190.97
2023-01-17T08:51:29.175Z,187.79
2023-01-17T08:52:29.152Z,183.50
2023-01-17T08:53:29.139Z,181.30
2023-01-17T08:54:29.125Z,189.97
2023-01-17T08:55:29.141Z,190.41
2023-01-17T08:56:29.094Z,186.61
2023-01-17T08:57:29.101Z,185.76
2023-01-17T08:58:30.558Z,184.72
2023-01-17T08:59:29.066Z,183.09
2023-01-17T09:00:29.054Z,177.05
2023-01-17T09:01:29.151Z,185.13
2023-01-17T09:02:29.058Z,187.04
2023-01-17T09:03:29.166Z,194.03
2023-01-17T09:04:29.067Z,197.07
2023-01-17T09:05:28.996Z,192.09
2023-01-17T09:06:28.990Z,203.83
2023-01-17T09:07:28.999Z,229.28
2023-01-17T09:08:28.944Z,268.01
2023-01-17T09:09:28.962Z,277.09
2023-01-17T09:10:28.956Z,275.46
2023-01-17T09:11:28.920Z,278.04
2023-01-17T09:12:28.893Z,285.57
2023-01-17T09:13:28.875Z,307.89
2023-01-17T09:14:28.867Z,323.43
2023-01-17T09:15:28.871Z,345.29
2023-01-17T09:16:28.877Z,346.76
2023-01-17T09:17:28.840Z,350.47
2023-01-17T09:18:28.812Z,354.27
2023-01-17T09:19:28.812Z,364.95
2023-01-17T09:20:28.809Z,369.91
2023-01-17T09:21:28.796Z,395.20
2023-01-17T09:22:28.761Z,394.50
2023-01-17T09:23:28.755Z,395.20
2023-01-17T09:24:28.732Z,410.34
2023-01-17T09:25:28.733Z,391.02
2023-01-17T09:26:28.741Z,377.60
2023-01-17T09:27:28.698Z,372.43
2023-01-17T09:28:28.688Z,351.60
2023-01-17T09:29:28.682Z,347.12
2023-01-17T09:30:28.738Z,334.34
2023-01-17T09:31:28.653Z,365.36
2023-01-17T09:32:28.637Z,372.01
2023-01-17T09:33:28.680Z,381.58
2023-01-17T09:34:28.604Z,396.86
2023-01-17T09:35:28.596Z,347.86
2023-01-17T09:36:28.596Z,296.44
2023-01-17T09:37:28.594Z,279.70
2023-01-17T09:38:28.577Z,315.62
2023-01-17T09:39:28.562Z,331.96
2023-01-17T09:40:28.579Z,383.34
2023-01-17T09:41:28.524Z,412.89
2023-01-17T09:42:28.521Z,422.34
2023-01-17T09:43:28.526Z,437.06
2023-01-17T09:44:28.473Z,452.54
2023-01-17T09:45:28.464Z,471.83
2023-01-17T09:46:28.478Z,449.79
2023-01-17T09:47:28.503Z,412.89
2023-01-17T09:48:28.425Z,417.03
2023-01-17T09:49:28.445Z,458.48
2023-01-17T09:50:28.403Z,464.89
2023-01-17T09:51:28.417Z,496.51
2023-01-17T09:52:28.376Z,522.28
2023-01-17T09:53:28.363Z,543.20
2023-01-17T09:54:28.353Z,548.58
2023-01-17T09:55:28.336Z,528.09
2023-01-17T09:56:28.319Z,540.11
2023-01-17T09:57:28.342Z,536.62
2023-01-17T09:58:28.294Z,510.63
2023-01-17T09:59:33.172Z,476.57
2023-01-17T10:00:28.296Z,453.47
2023-01-17T10:01:28.452Z,461.66
2023-01-17T10:02:28.465Z,496.51
2023-01-17T10:03:28.361Z,525.17
2023-01-17T10:04:28.243Z,548.58
2023-01-17T10:05:28.221Z,558.73
2023-01-17T10:06:28.206Z,586.35
2023-01-17T10:07:28.192Z,611.16
2023-01-17T10:08:28.182Z,630.30
2023-01-17T10:09:28.149Z,653.23
2023-01-17T10:10:28.152Z,689.86
2023-01-17T10:11:28.122Z,719.76
2023-01-17T10:12:28.140Z,718.20
2023-01-17T10:13:28.119Z,697.10
2023-01-17T10:14:28.089Z,687.72
2023-01-17T10:15:28.652Z,686.30
2023-01-17T10:16:28.148Z,665.00
2023-01-17T10:17:28.051Z,642.49
2023-01-17T10:18:30.348Z,661.03
2023-01-17T10:19:28.024Z,715.88
2023-01-17T10:20:28.019Z,746.35
2023-01-17T10:21:28.003Z,803.62
2023-01-17T10:22:27.992Z,831.77
2023-01-17T10:23:28.393Z,825.57
2023-01-17T10:24:27.958Z,852.02
2023-01-17T10:25:27.944Z,886.67
2023-01-17T10:26:27.928Z,925.54
2023-01-17T10:27:27.922Z,919.78
2023-01-17T10:28:27.912Z,952.04
2023-01-17T10:29:27.896Z,963.07
2023-01-17T10:30:27.916Z,980.83
2023-01-17T10:31:27.879Z,964.47
2023-01-17T10:32:27.859Z,904.15
2023-01-17T10:33:27.855Z,889.63
2023-01-17T10:34:27.840Z,883.72
2023-01-17T10:35:27.857Z,876.15
2023-01-17T10:36:27.807Z,879.05
2023-01-17T10:37:27.800Z,881.96
2023-01-17T10:38:27.791Z,901.69
2023-01-17T10:39:27.776Z,893.82
2023-01-17T10:40:27.778Z,907.23
2023-01-17T10:41:27.768Z,958.21
2023-01-17T10:42:27.725Z,1000.75
2023-01-17T10:43:27.714Z,970.09
2023-01-17T10:44:27.717Z,958.90
2023-01-17T10:45:27.724Z,970.09
2023-01-17T10:46:27.723Z,985.91
2023-01-17T10:47:27.682Z,1019.94
2023-01-17T10:48:27.645Z,1039.87
2023-01-17T10:49:27.714Z,1028.61
2023-01-17T10:50:27.621Z,1003.77
2023-01-17T10:51:27.630Z,1020.72
2023-01-17T10:52:27.611Z,1014.49
2023-01-17T10:53:27.598Z,978.66
2023-01-17T10:54:27.587Z,981.55
2023-01-17T10:55:27.579Z,989.58
2023-01-17T10:56:27.545Z,970.09
2023-01-17T10:57:27.545Z,981.55
2023-01-17T10:58:27.523Z,1011.41
2023-01-17T10:59:27.540Z,1037.44
2023-01-17T11:00:27.546Z,1069.99
2023-01-17T11:01:27.552Z,1049.72
2023-01-17T11:02:27.597Z,1051.38
2023-01-17T11:03:27.478Z,1051.38
2023-01-17T11:04:27.448Z,1072.58
2023-01-17T11:05:27.435Z,1080.42
2023-01-17T11:06:27.429Z,1076.05
2023-01-17T11:07:27.435Z,1051.38
2023-01-17T11:08:27.464Z,1004.53
2023-01-17T11:09:27.385Z,1042.32
2023-01-17T11:10:27.364Z,1076.92
2023-01-17T11:11:27.402Z,1102.82
2023-01-17T11:12:27.373Z,1106.49
2023-01-17T11:13:27.333Z,1120.47
2023-01-17T11:14:27.322Z,1118.59
2023-01-17T11:15:27.363Z,1121.42
2023-01-17T11:16:27.701Z,1142.61
2023-01-17T11:17:27.296Z,1114.84
2023-01-17T11:18:27.280Z,1126.16
2023-01-17T11:19:27.323Z,1137.72
2023-01-17T11:20:27.258Z,1145.56
2023-01-17T11:21:27.253Z,1146.55
2023-01-17T11:22:27.220Z,1147.54
2023-01-17T11:23:27.229Z,1128.07
2023-01-17T11:24:27.206Z,1064.00
2023-01-17T11:25:27.199Z,996.25
2023-01-17T11:26:27.184Z,985.18
2023-01-17T11:27:27.155Z,957.52
2023-01-17T11:28:27.143Z,963.77
2023-01-17T11:29:27.161Z,982.27
2023-01-17T11:30:27.124Z,1020.72
2023-01-17T11:31:27.252Z,990.32
2023-01-17T11:32:27.099Z,997.00
2023-01-17T11:33:27.097Z,964.47
2023-01-17T11:34:27.081Z,998.50
2023-01-17T11:35:27.088Z,1007.58
2023-01-17T11:36:27.075Z,1011.41
2023-01-17T11:37:27.030Z,1010.64
2023-01-17T11:38:27.027Z,1006.05
2023-01-17T11:39:27.008Z,984.46
2023-01-17T11:40:26.988Z,990.32
2023-01-17T11:41:27.009Z,982.27
2023-01-17T11:42:26.981Z,955.46
2023-01-17T11:43:26.997Z,921.69
2023-01-17T11:44:26.947Z,921.05
2023-01-17T11:45:30.553Z,911.58
2023-01-17T11:46:26.947Z,894.42
2023-01-17T11:47:26.903Z,838.06
2023-01-17T11:48:26.894Z,808.51
2023-01-17T11:49:26.875Z,797.84
2023-01-17T11:50:26.874Z,802.66
2023-01-17T11:51:26.854Z,807.04
2023-01-17T11:52:26.855Z,817.46
2023-01-17T11:53:26.839Z,833.33
2023-01-17T11:54:27.480Z,834.38
2023-01-17T11:55:28.977Z,830.73
2023-01-17T11:56:26.797Z,838.06
2023-01-17T11:57:26.810Z,848.76
2023-01-17T11:58:26.806Z,867.58
2023-01-17T11:59:26.756Z,865.89
2023-01-17T12:00:29.484Z,863.08
2023-01-17T12:01:27.771Z,873.28
2023-01-17T12:02:26.720Z,880.21
2023-01-17T12:03:27.414Z,877.31
2023-01-17T12:04:26.692Z,877.31
2023-01-17T12:05:26.679Z,864.76
2023-01-17T12:06:30.373Z,851.47
2023-01-17T12:07:26.678Z,830.73
2023-01-17T12:08:26.688Z,815.45
2023-01-17T12:09:26.647Z,806.06
2023-01-17T12:10:26.620Z,805.57
2023-01-17T12:11:26.617Z,825.57
2023-01-17T12:12:26.638Z,846.59
2023-01-17T12:13:26.578Z,868.15
2023-01-17T12:14:27.351Z,872.13
2023-01-17T12:15:26.560Z,886.67
2023-01-17T12:16:27.692Z,878.47
2023-01-17T12:17:26.533Z,876.15
2023-01-17T12:18:27.468Z,866.45
2023-01-17T12:19:26.505Z,848.21
2023-01-17T12:20:26.537Z,856.96
2023-01-17T12:21:26.522Z,869.28
2023-01-17T12:22:26.478Z,867.01
2023-01-17T12:23:26.474Z,856.41
2023-01-17T12:24:26.468Z,851.47
2023-01-17T12:25:26.444Z,854.76
2023-01-17T12:26:26.423Z,850.93
2023-01-17T12:27:26.414Z,863.08